createdAt,value
2022-08-19T00:00:41.282Z,23.63
2022-08-19T00:03:09.256Z,23.70
2022-08-19T00:05:37.917Z,23.79
2022-08-19T00:08:05.604Z,23.65
2022-08-19T00:10:34.989Z,23.55
2022-08-19T00:13:02.782Z,23.45
2022-08-19T00:15:30.388Z,23.43
2022-08-19T00:17:58.088Z,23.43
2022-08-19T00:20:26.774Z,23.74
2022-08-19T00:22:55.262Z,23.59
2022-08-19T00:25:23.621Z,23.76
2022-08-19T00:28:00.288Z,23.86
2022-08-19T00:30:28.513Z,23.89
2022-08-19T00:32:56.510Z,23.87
2022-08-19T00:35:24.273Z,23.79
2022-08-19T00:37:52.576Z,23.88
2022-08-19T00:40:20.840Z,23.92
2022-08-19T00:42:48.874Z,23.89
2022-08-19T00:45:21.078Z,23.83
2022-08-19T00:47:48.875Z,23.86
2022-08-19T00:50:19.818Z,23.77
2022-08-19T00:52:51.176Z,23.71
2022-08-19T00:55:23.017Z,23.51
2022-08-19T00:57:55.395Z,23.47
2022-08-19T01:00:26.719Z,23.48
2022-08-19T01:02:55.566Z,23.39
2022-08-19T01:05:28.293Z,23.18
2022-08-19T01:07:58.113Z,23.08
2022-08-19T01:10:30.727Z,22.90
2022-08-19T01:13:02.853Z,22.69
2022-08-19T01:15:35.303Z,22.73
2022-08-19T01:18:11.713Z,22.93
2022-08-19T01:20:40.893Z,23.06
2022-08-19T01:23:09.921Z,22.74
2022-08-19T01:25:43.389Z,22.45
2022-08-19T01:28:19.769Z,22.22
2022-08-19T01:31:07.960Z,22.19
2022-08-19T01:33:35.973Z,22.06
2022-08-19T01:36:09.464Z,21.97
2022-08-19T01:38:44.163Z,21.95
2022-08-19T01:41:13.687Z,21.87
2022-08-19T01:44:13.398Z,21.70
2022-08-19T01:46:29.519Z,21.70
2022-08-19T01:48:57.138Z,21.90
2022-08-19T01:51:24.858Z,21.78
2022-08-19T01:53:54.653Z,22.11
2022-08-19T01:56:22.914Z,22.61
2022-08-19T01:58:55.745Z,22.71
2022-08-19T02:01:23.504Z,23.19
2022-08-19T02:03:56.926Z,22.74
2022-08-19T02:06:26.797Z,22.86
2022-08-19T02:08:57.606Z,22.82
2022-08-19T02:11:32.240Z,23.16
2022-08-19T02:14:00.790Z,22.97
2022-08-19T02:16:28.459Z,23.27
2022-08-19T02:18:56.261Z,23.15
2022-08-19T02:21:25.938Z,23.18
2022-08-19T02:23:53.587Z,23.16
2022-08-19T02:26:23.175Z,22.71
2022-08-19T02:28:51.061Z,22.70
2022-08-19T02:31:21.022Z,22.51
2022-08-19T02:33:49.914Z,22.48
2022-08-19T02:36:21.082Z,22.08
2022-08-19T02:38:54.718Z,22.33
2022-08-19T02:41:27.402Z,22.19
2022-08-19T02:44:26.252Z,22.20
2022-08-19T02:46:44.511Z,22.05
2022-08-19T02:49:12.480Z,22.05
2022-08-19T02:51:43.019Z,21.87
2022-08-19T02:54:13.672Z,22.05
2022-08-19T02:56:44.318Z,21.49
2022-08-19T02:59:12.766Z,21.06
2022-08-19T03:01:43.040Z,20.96
2022-08-19T03:04:13.194Z,20.81
2022-08-19T03:06:42.187Z,20.73
2022-08-19T03:09:10.759Z,20.79
2022-08-19T03:11:39.079Z,20.80
2022-08-19T03:14:10.243Z,20.82
2022-08-19T03:16:44.737Z,20.41
2022-08-19T03:19:12.608Z,20.56
2022-08-19T03:21:40.275Z,20.48
2022-08-19T03:24:10.989Z,20.41
2022-08-19T03:26:41.287Z,20.39
2022-08-19T03:29:11.366Z,20.34
2022-08-19T03:31:48.631Z,20.46
2022-08-19T03:34:23.134Z,20.47
2022-08-19T03:36:50.848Z,20.53
2022-08-19T03:39:18.768Z,20.59
2022-08-19T03:41:48.479Z,20.74
2022-08-19T03:44:21.650Z,20.86
2022-08-19T03:46:53.306Z,20.68
2022-08-19T03:49:27.237Z,20.46
2022-08-19T03:51:57.837Z,20.38
2022-08-19T03:54:27.677Z,20.34
2022-08-19T03:56:57.313Z,20.30
2022-08-19T03:59:34.570Z,20.28
2022-08-19T04:02:05.310Z,20.31
2022-08-19T04:04:33.069Z,20.34
2022-08-19T04:07:00.870Z,20.50
2022-08-19T04:09:29.000Z,20.52
2022-08-19T04:11:59.593Z,20.43
2022-08-19T04:14:31.617Z,20.51
2022-08-19T04:17:00.261Z,20.55
2022-08-19T04:19:29.502Z,20.47
2022-08-19T04:21:57.460Z,20.45
2022-08-19T04:24:25.760Z,20.37
2022-08-19T04:26:53.586Z,20.37
2022-08-19T04:29:28.015Z,20.44
2022-08-19T04:31:58.452Z,20.35
2022-08-19T04:34:27.636Z,20.29
2022-08-19T04:36:57.236Z,20.28
2022-08-19T04:39:49.346Z,20.29
2022-08-19T04:42:35.625Z,20.26
2022-08-19T04:45:03.872Z,20.23
2022-08-19T04:47:49.186Z,20.16
2022-08-19T04:50:23.905Z,20.15
2022-08-19T04:52:53.457Z,20.15
2022-08-19T04:55:21.348Z,20.13
2022-08-19T04:57:49.253Z,20.11
2022-08-19T05:00:17.713Z,20.11
2022-08-19T05:02:46.808Z,20.14
2022-08-19T05:05:14.986Z,20.15
2022-08-19T05:07:43.071Z,20.20
2022-08-19T05:10:12.049Z,20.26
2022-08-19T05:12:40.036Z,20.25
2022-08-19T05:15:09.319Z,20.32
2022-08-19T05:17:39.064Z,20.43
2022-08-19T05:20:28.003Z,20.33
2022-08-19T05:22:55.807Z,20.31
2022-08-19T05:25:26.235Z,20.26
2022-08-19T05:27:53.990Z,20.30
2022-08-19T05:30:33.389Z,20.44
2022-08-19T05:33:13.119Z,20.37
2022-08-19T05:35:42.320Z,20.37
2022-08-19T05:38:10.121Z,20.44
2022-08-19T05:40:38.446Z,20.52
2022-08-19T05:43:08.073Z,20.44
2022-08-19T05:45:40.958Z,20.45
2022-08-19T05:48:08.651Z,20.51
2022-08-19T05:50:39.079Z,20.58
2022-08-19T05:53:13.140Z,20.65
2022-08-19T05:55:41.039Z,20.55
2022-08-19T05:58:09.021Z,20.60
2022-08-19T06:00:50.463Z,20.50
2022-08-19T06:03:31.978Z,20.57
2022-08-19T06:06:06.577Z,20.60
2022-08-19T06:08:55.531Z,20.66
2022-08-19T06:11:26.372Z,20.79
2022-08-19T06:14:00.265Z,20.89
2022-08-19T06:16:28.881Z,20.95
2022-08-19T06:18:58.892Z,21.15
2022-08-19T06:21:28.915Z,21.50
2022-08-19T06:23:59.150Z,21.52
2022-08-19T06:26:27.504Z,21.61
2022-08-19T06:28:55.839Z,21.50
2022-08-19T06:31:27.801Z,21.58
2022-08-19T06:33:55.561Z,21.49
2022-08-19T06:36:28.015Z,21.66
2022-08-19T06:38:55.886Z,21.58
2022-08-19T06:41:24.982Z,21.62
2022-08-19T06:43:55.696Z,21.88
2022-08-19T06:46:25.110Z,21.99
2022-08-19T06:48:55.269Z,22.13
2022-08-19T06:51:24.908Z,22.26
2022-08-19T06:53:55.915Z,22.50
2022-08-19T06:56:31.977Z,22.74
2022-08-19T06:59:00.483Z,22.81
2022-08-19T07:01:28.706Z,22.64
2022-08-19T07:03:57.540Z,22.48
2022-08-19T07:06:43.186Z,22.40
2022-08-19T07:09:14.016Z,22.22
2022-08-19T07:11:46.093Z,22.18
2022-08-19T07:14:19.407Z,22.00
2022-08-19T07:16:49.341Z,22.09
2022-08-19T07:19:19.267Z,21.86
2022-08-19T07:21:49.977Z,21.82
2022-08-19T07:24:19.465Z,21.80
2022-08-19T07:26:51.612Z,21.66
2022-08-19T07:29:24.159Z,21.81
2022-08-19T07:31:56.876Z,21.85
2022-08-19T07:34:26.173Z,21.84
2022-08-19T07:36:55.596Z,21.87
2022-08-19T07:39:26.070Z,21.75
2022-08-19T07:41:57.136Z,21.86
2022-08-19T07:44:25.157Z,22.03
2022-08-19T07:46:56.720Z,22.04
2022-08-19T07:49:25.243Z,22.05
2022-08-19T07:51:55.643Z,22.09
2022-08-19T07:54:25.363Z,22.13
2022-08-19T07:56:53.765Z,22.22
2022-08-19T07:59:23.582Z,21.99
2022-08-19T08:01:52.176Z,21.96
2022-08-19T08:04:37.883Z,21.86
2022-08-19T08:07:24.155Z,21.85
2022-08-19T08:09:52.589Z,21.77
2022-08-19T08:12:34.136Z,21.78
2022-08-19T08:15:12.765Z,21.72
2022-08-19T08:17:49.443Z,21.83
2022-08-19T08:20:20.240Z,21.91
2022-08-19T08:23:06.676Z,22.02
2022-08-19T08:25:36.283Z,22.15
2022-08-19T08:28:06.641Z,22.25
2022-08-19T08:30:37.947Z,22.36
2022-08-19T08:33:13.404Z,22.40
2022-08-19T08:35:43.562Z,22.52
2022-08-19T08:38:20.407Z,22.37
2022-08-19T08:40:54.185Z,22.48
2022-08-19T08:43:32.337Z,22.58
2022-08-19T08:46:07.650Z,22.57
2022-08-19T08:48:42.604Z,22.48
2022-08-19T08:51:14.681Z,22.46
2022-08-19T08:53:51.303Z,22.42
2022-08-19T08:56:24.395Z,22.48
2022-08-19T08:58:59.387Z,22.48
2022-08-19T09:01:30.278Z,22.33
2022-08-19T09:06:40.747Z,22.20
2022-08-19T09:09:17.831Z,22.03
2022-08-19T09:11:58.465Z,22.07
2022-08-19T09:14:52.564Z,22.01
2022-08-19T09:17:29.230Z,21.98
2022-08-19T09:19:59.946Z,21.93
2022-08-19T09:22:29.525Z,21.99
2022-08-19T09:24:57.456Z,22.09
2022-08-19T09:27:42.310Z,22.07
2022-08-19T09:30:15.705Z,22.09
2022-08-19T09:32:46.234Z,22.23
2022-08-19T09:35:15.863Z,22.38
2022-08-19T09:37:47.253Z,22.46
2022-08-19T09:40:15.346Z,22.20
2022-08-19T09:42:50.239Z,22.20
2022-08-19T09:45:23.661Z,22.37
2022-08-19T09:47:55.615Z,22.39
2022-08-19T09:50:24.601Z,22.42
2022-08-19T09:52:53.961Z,22.63
2022-08-19T09:55:31.971Z,22.62
2022-08-19T09:58:01.802Z,22.70
2022-08-19T10:00:29.834Z,23.14
2022-08-19T10:02:59.032Z,23.53
2022-08-19T10:05:44.542Z,23.60
2022-08-19T10:08:17.656Z,23.69
2022-08-19T10:10:47.159Z,23.73
2022-08-19T10:13:17.366Z,23.98
2022-08-19T10:15:48.205Z,23.88
2022-08-19T10:18:19.466Z,24.02
2022-08-19T10:20:51.521Z,23.84
2022-08-19T10:23:21.430Z,23.99
2022-08-19T10:25:49.734Z,23.91
2022-08-19T10:28:19.359Z,23.86
2022-08-19T10:30:48.049Z,23.74
2022-08-19T10:33:16.200Z,23.56
2022-08-19T10:36:07.793Z,23.53
2022-08-19T10:38:36.181Z,23.50
2022-08-19T10:41:13.329Z,23.58
2022-08-19T10:43:41.499Z,23.52
2022-08-19T10:46:16.696Z,23.19
2022-08-19T10:48:45.730Z,22.86
2022-08-19T10:51:32.302Z,22.97
2022-08-19T10:54:00.949Z,22.74
2022-08-19T10:56:46.952Z,22.77
2022-08-19T10:59:15.591Z,22.99
2022-08-19T11:01:44.958Z,22.90
2022-08-19T11:04:14.578Z,22.92
2022-08-19T11:06:44.493Z,22.91
2022-08-19T11:09:12.848Z,23.08
2022-08-19T11:11:41.877Z,23.01
2022-08-19T11:14:10.910Z,22.83
2022-08-19T11:16:39.871Z,23.10
2022-08-19T11:19:09.436Z,23.43
2022-08-19T11:21:38.504Z,23.50
2022-08-19T11:24:10.325Z,23.73
2022-08-19T11:26:39.755Z,23.60
2022-08-19T11:29:12.503Z,23.77
2022-08-19T11:31:42.481Z,23.90
2022-08-19T11:34:12.882Z,23.91
2022-08-19T11:36:43.764Z,24.13
2022-08-19T11:39:14.863Z,24.23
2022-08-19T11:41:42.610Z,24.60
2022-08-19T11:44:10.856Z,24.79
2022-08-19T11:46:39.907Z,24.48
2022-08-19T11:49:13.782Z,24.04
2022-08-19T11:51:43.993Z,23.80
2022-08-19T11:54:14.449Z,23.70
2022-08-19T11:56:42.573Z,23.78
2022-08-19T11:59:14.592Z,23.96
2022-08-19T12:01:44.460Z,24.27
2022-08-19T12:04:12.696Z,24.13
2022-08-19T12:06:42.689Z,24.16
2022-08-19T12:09:11.542Z,24.04
2022-08-19T12:11:41.586Z,24.15
2022-08-19T12:14:14.496Z,23.63
2022-08-19T12:16:48.611Z,23.65
2022-08-19T12:19:21.948Z,23.77
2022-08-19T12:21:50.981Z,23.98
2022-08-19T12:24:23.808Z,23.94
2022-08-19T12:26:54.388Z,23.78
2022-08-19T12:29:30.540Z,23.82
2022-08-19T12:32:02.036Z,23.97
2022-08-19T12:34:32.034Z,23.86
2022-08-19T12:37:00.609Z,23.96
2022-08-19T12:39:28.192Z,23.74
2022-08-19T12:41:57.337Z,23.89
2022-08-19T12:44:31.922Z,23.90
2022-08-19T12:47:04.012Z,24.03
2022-08-19T12:49:54.204Z,24.11
2022-08-19T12:52:24.040Z,24.18
2022-08-19T12:54:54.516Z,24.23
2022-08-19T12:57:31.459Z,23.89
2022-08-19T13:00:01.808Z,24.15
2022-08-19T13:02:38.250Z,24.06
2022-08-19T13:05:09.225Z,24.18
2022-08-19T13:07:38.316Z,24.16
2022-08-19T13:10:07.580Z,24.33
2022-08-19T13:12:37.086Z,24.35
2022-08-19T13:15:10.699Z,24.70
2022-08-19T13:17:40.053Z,24.74
2022-08-19T13:20:09.744Z,24.96
2022-08-19T13:22:37.587Z,24.82
2022-08-19T13:25:06.559Z,24.96
2022-08-19T13:27:34.374Z,24.75
2022-08-19T13:30:23.153Z,24.76
2022-08-19T13:33:08.439Z,24.40
2022-08-19T13:35:36.251Z,24.52
2022-08-19T13:38:05.683Z,24.62
2022-08-19T13:40:37.440Z,24.55
2022-08-19T13:43:12.488Z,24.72
2022-08-19T13:45:57.410Z,24.68
2022-08-19T13:48:27.268Z,24.53
2022-08-19T13:50:55.514Z,24.63
2022-08-19T13:53:23.375Z,24.65
2022-08-19T13:55:52.010Z,24.09
2022-08-19T13:58:20.170Z,24.04
2022-08-19T14:00:49.528Z,23.53
2022-08-19T14:03:18.631Z,23.65
2022-08-19T14:05:47.799Z,23.76
2022-08-19T14:08:15.594Z,23.81
2022-08-19T14:10:45.197Z,23.86
2022-08-19T14:13:16.087Z,23.63
2022-08-19T14:15:45.502Z,23.76
2022-08-19T14:18:13.602Z,23.61
2022-08-19T14:20:43.379Z,23.59
2022-08-19T14:23:11.703Z,23.49
2022-08-19T14:25:39.515Z,23.49
2022-08-19T14:28:07.746Z,23.44
2022-08-19T14:30:38.621Z,23.52
2022-08-19T14:33:08.116Z,23.48
2022-08-19T14:35:36.529Z,23.37
2022-08-19T14:38:07.646Z,23.20
2022-08-19T14:40:35.852Z,23.20
2022-08-19T14:43:09.137Z,23.18
2022-08-19T14:45:47.358Z,23.31
2022-08-19T14:48:22.693Z,23.41
2022-08-19T14:50:58.081Z,23.57
2022-08-19T14:53:31.363Z,23.49
2022-08-19T14:56:07.606Z,23.33
2022-08-19T14:58:45.990Z,23.32
2022-08-19T15:01:24.419Z,23.16
2022-08-19T15:03:58.010Z,23.15
2022-08-19T15:06:26.839Z,23.36
2022-08-19T15:08:57.769Z,23.49
2022-08-19T15:11:30.050Z,23.23
2022-08-19T15:13:58.805Z,23.23
2022-08-19T15:16:28.739Z,23.22
2022-08-19T15:18:58.717Z,23.44
2022-08-19T15:21:27.706Z,23.37
2022-08-19T15:24:08.426Z,23.33
2022-08-19T15:26:44.180Z,23.41
2022-08-19T15:29:28.120Z,23.45
2022-08-19T15:32:01.870Z,23.54
2022-08-19T15:34:39.426Z,23.64
2022-08-19T15:37:14.360Z,23.45
2022-08-19T15:39:49.016Z,23.60
2022-08-19T15:42:29.641Z,23.61
2022-08-19T15:45:02.805Z,23.45
2022-08-19T15:47:34.855Z,23.42
2022-08-19T15:50:10.516Z,23.51
2022-08-19T15:53:03.189Z,23.55
2022-08-19T15:55:39.614Z,23.54
2022-08-19T15:58:39.928Z,23.55
2022-08-19T16:01:31.231Z,23.35
2022-08-19T16:04:20.684Z,23.43
2022-08-19T16:06:50.690Z,23.27
2022-08-19T16:09:24.932Z,23.37
2022-08-19T16:11:59.628Z,23.50
2022-08-19T16:14:35.150Z,23.34
2022-08-19T16:17:12.169Z,23.34
2022-08-19T16:19:40.582Z,23.39
2022-08-19T16:22:09.526Z,23.31
2022-08-19T16:24:37.815Z,23.18
2022-08-19T16:27:07.564Z,23.06
2022-08-19T16:29:39.159Z,23.11
2022-08-19T16:32:12.749Z,22.78
2022-08-19T16:34:42.603Z,22.91
2022-08-19T16:37:10.911Z,22.93
2022-08-19T16:39:40.377Z,22.61
2022-08-19T16:42:18.279Z,22.54
2022-08-19T16:44:54.626Z,22.48
2022-08-19T16:47:29.211Z,22.68
2022-08-19T16:49:57.526Z,22.63
2022-08-19T16:52:26.901Z,22.59
2022-08-19T16:54:55.062Z,22.28
2022-08-19T16:57:26.645Z,22.24
2022-08-19T17:00:17.286Z,22.23
2022-08-19T17:02:58.260Z,22.52
2022-08-19T17:05:35.802Z,23.10
2022-08-19T17:11:18.470Z,22.96
2022-08-19T17:14:03.248Z,23.05
2022-08-19T17:16:49.737Z,22.65
2022-08-19T17:19:32.143Z,23.00
2022-08-19T17:22:19.707Z,23.34
2022-08-19T17:24:52.274Z,22.96
2022-08-19T17:27:35.917Z,23.03
2022-08-19T17:30:22.658Z,23.23
2022-08-19T17:32:56.647Z,23.03
2022-08-19T17:35:28.935Z,22.65
2022-08-19T17:38:11.667Z,22.71
2022-08-19T17:41:00.686Z,22.09
2022-08-19T17:43:43.768Z,22.06
2022-08-19T17:46:20.716Z,22.16
2022-08-19T17:48:59.237Z,22.28
2022-08-19T17:51:47.791Z,22.15
2022-08-19T17:54:25.266Z,22.59
2022-08-19T17:57:16.633Z,22.53
2022-08-19T17:59:59.368Z,22.76
2022-08-19T18:02:53.172Z,22.71
2022-08-19T18:05:38.786Z,22.54
2022-08-19T18:08:24.753Z,22.74
2022-08-19T18:10:58.680Z,22.79
2022-08-19T18:13:36.171Z,22.76
2022-08-19T18:16:12.742Z,22.89
2022-08-19T18:19:02.879Z,22.49
2022-08-19T18:21:38.267Z,22.47
2022-08-19T18:24:30.039Z,22.67
2022-08-19T18:27:13.292Z,22.74
2022-08-19T18:29:50.039Z,23.02
2022-08-19T18:32:23.814Z,22.94
2022-08-19T18:35:13.256Z,22.91
2022-08-19T18:37:42.366Z,22.97
2022-08-19T18:40:31.423Z,23.14
2022-08-19T18:43:19.326Z,23.05
2022-08-19T18:46:07.138Z,23.10
2022-08-19T18:48:53.145Z,22.79
2022-08-19T18:51:28.157Z,22.52
2022-08-19T18:53:58.891Z,22.72
2022-08-19T18:56:31.892Z,22.70
2022-08-19T18:59:00.804Z,22.75
2022-08-19T19:01:31.290Z,22.76
2022-08-19T19:04:02.495Z,23.07
2022-08-19T19:06:38.237Z,23.38
2022-08-19T19:09:07.640Z,23.14
2022-08-19T19:11:39.991Z,23.30
2022-08-19T19:14:19.205Z,23.52
2022-08-19T19:16:55.487Z,23.44
2022-08-19T19:19:24.062Z,23.47
2022-08-19T19:21:54.025Z,23.39
2022-08-19T19:24:25.247Z,23.55
2022-08-19T19:26:54.318Z,23.49
2022-08-19T19:29:23.132Z,23.35
2022-08-19T19:31:53.022Z,23.24
2022-08-19T19:34:29.207Z,22.94
2022-08-19T19:36:59.420Z,22.63
2022-08-19T19:39:42.964Z,22.61
2022-08-19T19:42:20.485Z,22.71
2022-08-19T19:44:51.137Z,22.97
2022-08-19T19:47:20.052Z,22.80
2022-08-19T19:50:13.908Z,22.95
2022-08-19T19:52:44.132Z,23.07
2022-08-19T19:55:15.797Z,22.85
2022-08-19T19:57:45.227Z,22.88
2022-08-19T20:00:16.736Z,22.77
2022-08-19T20:02:49.607Z,22.76
2022-08-19T20:05:21.451Z,22.80
2022-08-19T20:08:10.841Z,22.85
2022-08-19T20:10:40.193Z,22.80
2022-08-19T20:13:10.142Z,22.72
2022-08-19T20:15:43.470Z,22.66
2022-08-19T20:18:13.469Z,22.51
2022-08-19T20:20:42.253Z,22.26
2022-08-19T20:23:11.777Z,22.18
2022-08-19T20:25:40.849Z,22.33
2022-08-19T20:28:12.426Z,22.21
2022-08-19T20:30:46.286Z,22.25
2022-08-19T20:33:14.960Z,22.13
2022-08-19T20:35:44.660Z,22.35
2022-08-19T20:38:14.351Z,22.30
2022-08-19T20:40:44.498Z,22.26
2022-08-19T20:43:15.078Z,22.23
2022-08-19T20:45:43.341Z,22.19
2022-08-19T20:48:12.545Z,22.15
2022-08-19T20:50:41.261Z,22.16
2022-08-19T20:53:18.378Z,22.08
2022-08-19T20:55:51.379Z,22.27
2022-08-19T20:58:21.347Z,22.42
2022-08-19T21:00:50.434Z,22.48
2022-08-19T21:03:21.183Z,22.18
2022-08-19T21:05:50.092Z,21.91
2022-08-19T21:08:20.249Z,21.49
2022-08-19T21:10:50.392Z,21.16
2022-08-19T21:13:19.887Z,21.02
2022-08-19T21:15:48.849Z,20.86
2022-08-19T21:18:19.860Z,20.77
2022-08-19T21:20:48.560Z,20.70
2022-08-19T21:23:21.187Z,20.62
2022-08-19T21:25:54.317Z,20.53
2022-08-19T21:28:35.175Z,20.47
2022-08-19T21:31:06.299Z,20.45
2022-08-19T21:33:34.487Z,20.42
2022-08-19T21:36:02.653Z,20.29
2022-08-19T21:38:32.259Z,20.21
2022-08-19T21:41:03.573Z,20.18
2022-08-19T21:43:35.151Z,20.15
2022-08-19T21:46:03.441Z,20.14
2022-08-19T21:48:31.448Z,20.14
2022-08-19T21:51:00.147Z,20.17
2022-08-19T21:53:31.550Z,20.22
2022-08-19T21:56:05.045Z,20.26
2022-08-19T21:58:39.011Z,20.32
2022-08-19T22:01:08.173Z,20.33
2022-08-19T22:03:37.918Z,20.32
2022-08-19T22:06:06.453Z,20.31
2022-08-19T22:08:34.974Z,20.27
2022-08-19T22:11:05.325Z,20.29
2022-08-19T22:13:40.105Z,20.31
2022-08-19T22:16:09.489Z,20.33
2022-08-19T22:18:37.847Z,20.31
2022-08-19T22:21:11.391Z,20.33
2022-08-19T22:23:40.510Z,20.40
2022-08-19T22:26:10.661Z,20.39
2022-08-19T22:28:39.671Z,20.42
2022-08-19T22:31:09.152Z,20.41
2022-08-19T22:33:38.433Z,20.44
2022-08-19T22:36:08.582Z,20.35
2022-08-19T22:38:38.350Z,20.40
2022-08-19T22:41:07.949Z,20.32
2022-08-19T22:43:38.120Z,20.37
2022-08-19T22:46:16.991Z,20.40
2022-08-19T22:48:46.415Z,20.39
2022-08-19T22:51:31.901Z,20.40
2022-08-19T22:54:00.427Z,20.40
2022-08-19T22:56:31.279Z,20.42
2022-08-19T22:59:03.506Z,20.38
2022-08-19T23:01:32.237Z,20.41
2022-08-19T23:04:03.762Z,20.41
2022-08-19T23:06:33.550Z,20.40
2022-08-19T23:09:04.718Z,20.39
2022-08-19T23:11:35.578Z,20.44
2022-08-19T23:14:08.722Z,20.41
2022-08-19T23:16:37.436Z,20.38
2022-08-19T23:19:08.618Z,20.41
2022-08-19T23:21:37.337Z,20.33
2022-08-19T23:24:06.608Z,20.31
2022-08-19T23:26:36.074Z,20.32
2022-08-19T23:29:22.671Z,20.31
2022-08-19T23:31:52.771Z,20.33
2022-08-19T23:34:21.001Z,20.32
2022-08-19T23:36:50.932Z,20.27
2022-08-19T23:39:20.389Z,20.30
2022-08-19T23:41:51.003Z,20.30
2022-08-19T23:44:21.760Z,20.28
2022-08-19T23:46:55.084Z,20.23
2022-08-19T23:49:25.562Z,20.21
2022-08-19T23:51:55.605Z,20.21
2022-08-19T23:54:34.347Z,20.20
2022-08-19T23:57:13.454Z,20.18
2022-08-19T23:59:45.185Z,20.12
